This is the latest recevied weather packets stored in our database for station/object N3MFL. If no packets are shown the sender has not sent any weather packets the latest 10 day(s).
| Time | Temp. | Humidity | Pressure | Rain* | Wind** | Luminosity | Snow |
|---|---|---|---|---|---|---|---|
| 1778005349 | 21.67° C | 58% | 1010.6 hPa | 0 mm | - | 198 W/m² | - |
| 1778002618 | 21.67° C | 56% | 1011.2 hPa | 0 mm | - | 153 W/m² | - |
| 1778002013 | 21.11° C | 57% | 1011.1 hPa | 0 mm | - | 443 W/m² | - |
| 1778001709 | 21.11° C | 59% | 1011.2 hPa | 0 mm | - | 276 W/m² | - |
| 1778001409 | 21.11° C | 58% | 1011.2 hPa | 0 mm | - | 222 W/m² | - |
| 1778000804 | 20.56° C | 61% | 1011.1 hPa | 0 mm | - | 290 W/m² | - |
| 1777998988 | 21.11° C | 59% | 1011.5 hPa | 0 mm | - | 402 W/m² | - |
| 1777998685 | 20.56° C | 60% | 1011.7 hPa | 0 mm | - | 308 W/m² | - |
| 1777998383 | 20.56° C | 61% | 1011.7 hPa | 0 mm | - | 322 W/m² | - |
| 1777995352 | 21.11° C | 60% | 1011.8 hPa | 0 mm | - | 482 W/m² | - |
| 1777995049 | 21.11° C | 59% | 1011.8 hPa | 0 mm | - | 416 W/m² | - |
| 1777994745 | 20.56° C | 59% | 1011.7 hPa | 0 mm | - | 412 W/m² | - |
| 1777994136 | 21.67° C | 58% | 1011.5 hPa | 0 mm | - | 395 W/m² | - |
| 1777992319 | 20.56° C | 62% | 1011.8 hPa | 0 mm | - | 757 W/m² | - |
| 1777991714 | 19.44° C | 63% | 1012.1 hPa | 0 mm | - | 330 W/m² | - |
| 1777991108 | 18.89° C | 63% | 1011.9 hPa | 0 mm | - | 252 W/m² | - |
| 1777990805 | 20° C | 62% | 1012 hPa | 0 mm | - | 762 W/m² | - |
| 1777990502 | 19.44° C | 64% | 1011.9 hPa | 0 mm | - | 603 W/m² | - |
| 1777990199 | 19.44° C | 64% | 1012 hPa | 0 mm | - | 586 W/m² | - |
| 1777989895 | 20° C | 62% | 1011.9 hPa | 0 mm | - | 447 W/m² | - |
| 1777989592 | 19.44° C | 65% | 1012.1 hPa | 0 mm | - | 580 W/m² | - |
| 1777988378 | 17.78° C | 67% | 1012.2 hPa | 0 mm | - | 472 W/m² | - |
| 1777988076 | 17.78° C | 68% | 1012.1 hPa | 0 mm | - | 182 W/m² | - |
| 1777987771 | 17.78° C | 69% | 1012.2 hPa | 0 mm | - | 535 W/m² | - |
| 1777987468 | 17.78° C | 67% | 1012.3 hPa | 0 mm | - | 496 W/m² | - |
* Rain latest hour (hover to see other rain measurements)
** Current wind speed in m/s (hover to see current wind gust speed)